Time;durP1;ratioP1;P1;durP2;ratioP2;P2;SDS_P1;SDS_P2;PMS_P1;PMS_P2;Temp;Humidity;BMP_temperature;BMP_pressure;BME280_temperature;BME280_humidity;BME280_pressure;Samples;Min_cycle;Max_cycle;Signal;HPM_P1;HPM_P2
2022/05/09 16:33:18;;;;;;;7.15;4.25;;;24.00;69.80;;;;;;5069645;28;20372;-45
2022/05/09 16:35:46;;;;;;;10.60;4.40;;;23.80;70.50;;;;;;5061859;28;20044;-45
2022/05/09 16:38:16;;;;;;;6.95;3.88;;;23.80;70.50;;;;;;5050549;28;20120;-50
2022/05/09 16:40:43;;;;;;;6.65;3.40;;;23.90;71.10;;;;;;5051188;28;20045;-46
2022/05/09 16:43:11;;;;;;;7.82;3.60;;;24.20;70.80;;;;;;5050331;28;20029;-48
2022/05/09 16:45:37;;;;;;;7.60;3.85;;;24.20;69.50;;;;;;5053889;28;20033;-50
2022/05/09 16:48:04;;;;;;;8.80;3.85;;;24.30;69.60;;;;;;5050422;28;20103;-50
2022/05/09 16:50:31;;;;;;;8.63;3.78;;;24.20;68.90;;;;;;5051554;28;20045;-49
2022/05/09 16:52:58;;;;;;;11.30;3.50;;;24.10;68.90;;;;;;5050152;28;20037;-51
2022/05/09 16:55:25;;;;;;;7.25;3.75;;;24.10;69.40;;;;;;5050205;28;20041;-48
2022/05/09 16:57:51;;;;;;;5.90;4.05;;;24.00;68.90;;;;;;5028989;28;20089;-54
2022/05/09 17:00:18;;;;;;;8.85;3.60;;;23.90;69.00;;;;;;5050074;28;20041;-51
2022/05/09 17:02:45;;;;;;;10.95;4.78;;;23.90;68.90;;;;;;5051818;28;20053;-52
2022/05/09 17:05:12;;;;;;;5.57;3.55;;;23.90;68.90;;;;;;5049812;28;20400;-43
2022/05/09 17:07:39;;;;;;;6.03;3.85;;;23.80;68.90;;;;;;5050020;28;20051;-53
2022/05/09 17:10:06;;;;;;;7.78;3.15;;;23.70;69.20;;;;;;5051753;28;20049;-46
2022/05/09 17:12:34;;;;;;;8.77;4.28;;;23.70;69.90;;;;;;5049583;28;20041;-46
2022/05/09 17:15:02;;;;;;;8.73;3.75;;;23.50;69.50;;;;;;5049615;28;20121;-49
2022/05/09 17:17:30;;;;;;;9.13;3.65;;;23.30;69.50;;;;;;5048552;28;20083;-53
2022/05/09 17:19:56;;;;;;;6.20;3.28;;;23.00;70.70;;;;;;5049325;28;20067;-49
2022/05/09 17:22:23;;;;;;;8.18;3.67;;;22.80;71.90;;;;;;5049505;28;20073;-46
2022/05/09 17:24:50;;;;;;;5.80;3.60;;;22.70;71.70;;;;;;5048278;28;20050;-50
2022/05/09 17:27:17;;;;;;;6.75;3.70;;;22.70;71.90;;;;;;5049383;28;20045;-50
2022/05/09 17:29:48;;;;;;;8.13;4.03;;;22.60;71.80;;;;;;5049408;28;20095;-51
2022/05/09 17:32:15;;;;;;;8.90;4.00;;;22.60;72.50;;;;;;5048680;28;20076;-44
2022/05/09 17:34:41;;;;;;;8.35;4.18;;;22.40;72.10;;;;;;5050099;28;20455;-49
2022/05/09 17:37:18;;;;;;;7.40;4.13;;;22.30;72.70;;;;;;5049324;28;20045;-51
2022/05/09 17:39:45;;;;;;;7.97;3.97;;;22.20;72.90;;;;;;5028449;28;20441;-46
2022/05/09 17:42:15;;;;;;;7.07;3.80;;;22.20;73.40;;;;;;5048943;28;20480;-48
2022/05/09 17:44:42;;;;;;;7.18;3.95;;;22.10;73.00;;;;;;5038936;28;20052;-46
2022/05/09 17:47:09;;;;;;;7.90;3.88;;;22.00;73.10;;;;;;5035780;28;20070;-48
2022/05/09 17:49:35;;;;;;;6.95;4.40;;;21.80;74.10;;;;;;5039351;28;20064;-49
2022/05/09 17:52:02;;;;;;;11.30;5.10;;;21.80;74.00;;;;;;5029255;28;20060;-45
2022/05/09 17:54:29;;;;;;;8.05;4.45;;;21.60;73.90;;;;;;5029301;28;20037;-50
2022/05/09 17:56:56;;;;;;;9.23;5.20;;;21.40;74.50;;;;;;5035552;28;20100;-50
2022/05/09 17:59:23;;;;;;;10.98;5.25;;;21.20;74.80;;;;;;5035575;28;20030;-47
2022/05/09 18:01:52;;;;;;;11.18;5.32;;;21.10;75.50;;;;;;5035562;28;20064;-51
2022/05/09 18:04:19;;;;;;;7.20;4.55;;;20.90;76.00;;;;;;5036765;28;20111;-52
2022/05/09 18:06:46;;;;;;;8.82;4.82;;;20.80;76.50;;;;;;5037082;28;20079;-49
2022/05/09 18:09:13;;;;;;;8.15;4.88;;;20.80;77.10;;;;;;5036344;28;20037;-46
2022/05/09 18:11:40;;;;;;;8.63;5.07;;;20.70;77.20;;;;;;5038032;28;20076;-49
2022/05/09 18:14:06;;;;;;;10.02;4.97;;;20.60;77.80;;;;;;5034520;28;20378;-47
2022/05/09 18:16:33;;;;;;;7.65;4.32;;;20.40;77.90;;;;;;5035387;28;20045;-49
2022/05/09 18:19:00;;;;;;;8.55;4.75;;;20.40;78.10;;;;;;5035214;28;20041;-50
2022/05/09 18:21:26;;;;;;;6.95;4.57;;;20.30;78.50;;;;;;5035146;28;20076;-47
2022/05/09 18:23:53;;;;;;;6.57;4.30;;;20.20;78.50;;;;;;5035227;28;20049;-52
2022/05/09 18:26:20;;;;;;;7.35;3.65;;;20.10;78.40;;;;;;5035406;28;20037;-46
2022/05/09 18:28:49;;;;;;;6.85;4.50;;;20.10;78.60;;;;;;5035190;28;20053;-46
2022/05/09 18:31:16;;;;;;;8.88;4.38;;;20.10;78.50;;;;;;5034775;28;20085;-48
2022/05/09 18:33:43;;;;;;;6.15;4.32;;;20.00;78.30;;;;;;5039685;28;20046;-49
2022/05/09 18:36:10;;;;;;;6.20;3.90;;;19.90;78.40;;;;;;5035005;28;20045;-49
2022/05/09 18:38:37;;;;;;;7.15;4.20;;;19.90;78.70;;;;;;5034571;28;20485;-51
2022/05/09 18:41:04;;;;;;;7.10;4.03;;;19.90;78.80;;;;;;5034788;28;20041;-48
2022/05/09 18:43:31;;;;;;;7.10;4.60;;;19.80;78.90;;;;;;5034722;28;20132;-53
